Pagina principale
METAR-TAF:

METAR-TAF

Aeroporti :

Marshfield, Massachusetts, Stati Uniti

latitudine: 42-05-54N, longitudine: 070-40-20W, altezza: 3 m

Osservazione

Il bollettino è stato emesso 32 minuti fa, alle 21:15 UTC
Vento 9 kt da nord con raffiche fino a 17 kt, variando fra nord-ovest e nord-est
Temperature 5°C
Umidità 93%
Pressione 1008 hPa
Visibilità: 2.4 km
Nuvoloso ad un'altezza di 800 ft
Cielo coperto ad un'altezza di 1200 ft
foschia

METAR: KGHG 202115Z AUTO 36009G17KT 320V050 1 1/2SM BR BKN008 OVC012 05/04 A2978 RMK AO2

Ora: 16:47 (21:47 UTC)


TAF: mancante

Osservazioni e previsioni meteorologiche di più di 4000 aeroporti (messaggi METAR e TAF).

Le stazioni disponibili sono rappresentate dai dischi gialli e rossi sulla carta.

Puntare il mouse per vedere il nome della stazione.

Clicca sopra per visualizzare le osservazioni e previsioni meteorologiche.

Per cambiare la mappa : fare clic sui pulsanti verdi con una croce nera per ingrandire, il pulsante verde con un trattino per diminuire, o sulla freccia verde per le mappe adiacenti.


METAR-TAF: